Lakewood, CO

4:43 PM MDT on May 22, 2015 (GMT -0600)
Erie Municipal Airport | | Change Station
CLOSE
Current Station
Airport
Location: Erie,
Elevation: 5128 ft
Nearby Weather Stations

Elev 5128 ft 40.01 °N, 105.05 °W | Updated 9 minutes ago

Overcast
Overcast
57 °F
Feels Like 57 °F
N
9
Wind Variable Wind from NE

Today
High -- | Low -- °F
--% Chance of Precip.
Yesterday
High -- | Low -- °F
Precip. -- in
5:40 AM 8:14 PM
Waxing Crescent, 24% visible
Pressure 29.98 in
Visibility 10.0 miles
Clouds Scattered Clouds 2000 ft
Scattered Clouds 3300 ft
Mostly Cloudy 9000 ft
Dew Point 48 °F
Humidity 71%
Rainfall 0.00 in
Snow Depth Not available.
UV 3 out of 12
Pollen 3.80 out of 12
Air Quality Not available.
Flu Activity Sporadic
METAR KEIK 222234Z AUTO 04008KT 10SM SCT020 SCT033 BKN090 14/09 A2998 RMK AO2 LTG DSNT S THRU W T01400089

More Conditions Fewer Conditions

Pressure 29.98 in
Visibility 10.0 miles
Clouds Scattered Clouds 2000 ft
Scattered Clouds 3300 ft
Mostly Cloudy 9000 ft
Dew Point 48 °F
Humidity 71%
Rainfall 0.00 in
Snow Depth Not available.
UV 3 out of 12
Pollen 3.80 out of 12
Air Quality Not available.
Flu Activity Sporadic
METAR KEIK 222234Z AUTO 04008KT 10SM SCT020 SCT033 BKN090 14/09 A2998 RMK AO2 LTG DSNT S THRU W T01400089

More Conditions Fewer Conditions

Nowcast | as of 4:14 PM MDT on May 22, 2015

Areas of light rain over far northern parts of Weld and Larimer counties will end during the late afternoon. Meanwhile scattered thunderstorms will continue to develop in areas further south...mainly south and west of Denver. Some of these storms will produce wind gusts to 40 mph...brief heavy rain...and small hail.

×

10-Day Weather Forecast

Almanac

Astronomy

May. 22, 2015 Rise Set
Actual Time
Civil Twilight
Nautical Twilight
Astronomical Twilight
Moon
Length of Visible Light
Length of Day
Tomorrow will be .
, % of the Moon is Illuminated

Today's Extremes

State Highs State Lows

Community

WunderPhotos

Upload Photos

1,823,323 photos uploaded!

WunderBlogs® & News

Nearby

Air Quality

  Air Quality AQ Index Pollutant
Not available.

Snow Depth

Station Depth Elevation

Earthquake Activity

City Distance Mag. Time & Date
Minimum magnitude displayed is 2.5.

Coastal Water Temperatures

Place Temperature

Stations

Nearby Weather Stations

Station Location Temp. Windchill Dew Point Humidity Wind Precip. Elev Updated Type